sensor_id;sensor_type;location;lat;lon;timestamp;pressure;altitude;pressure_sealevel;temperature;humidity
14041;BME280;7095;51.388;6.196;2023-04-22T00:01:33;103311.25;;;-145.32;100.00
14041;BME280;7095;51.388;6.196;2023-04-22T00:04:03;103053.06;;;-145.32;100.00
14041;BME280;7095;51.388;6.196;2023-04-22T00:06:33;103827.66;;;-145.32;100.00
14041;BME280;7095;51.388;6.196;2023-04-22T00:09:02;104085.91;;;-145.32;100.00
14041;BME280;7095;51.388;6.196;2023-04-22T00:11:30;103569.44;;;-145.32;100.00
14041;BME280;7095;51.388;6.196;2023-04-22T00:13:58;102278.66;;;-145.32;100.00
14041;BME280;7095;51.388;6.196;2023-04-22T00:16:28;100472.31;;;-145.32;100.00
14041;BME280;7095;51.388;6.196;2023-04-22T00:18:57;101762.47;;;-145.32;100.00
14041;BME280;7095;51.388;6.196;2023-04-22T00:21:25;102278.66;;;-145.32;100.00
14041;BME280;7095;51.388;6.196;2023-04-22T00:23:54;102278.66;;;-145.32;100.00
14041;BME280;7095;51.388;6.196;2023-04-22T00:26:23;101762.47;;;-145.32;100.00
14041;BME280;7095;51.388;6.196;2023-04-22T00:28:51;101762.47;;;-145.32;100.00
14041;BME280;7095;51.388;6.196;2023-04-22T00:31:19;102278.66;;;-145.32;100.00
14041;BME280;7095;51.388;6.196;2023-04-22T00:33:49;103311.25;;;-145.32;100.00
14041;BME280;7095;51.388;6.196;2023-04-22T00:36:18;103569.44;;;-145.32;100.00
14041;BME280;7095;51.388;6.196;2023-04-22T00:38:47;103569.44;;;-145.32;100.00
14041;BME280;7095;51.388;6.196;2023-04-22T00:41:17;102794.91;;;-145.32;100.00
14041;BME280;7095;51.388;6.196;2023-04-22T00:43:46;104085.91;;;-145.32;100.00
14041;BME280;7095;51.388;6.196;2023-04-22T00:46:15;103827.66;;;-145.32;100.00
14041;BME280;7095;51.388;6.196;2023-04-22T00:48:44;104344.16;;;-145.32;100.00
14041;BME280;7095;51.388;6.196;2023-04-22T00:51:14;103827.66;;;-145.32;100.00
14041;BME280;7095;51.388;6.196;2023-04-22T00:53:43;106152.47;;;-145.32;100.00
14041;BME280;7095;51.388;6.196;2023-04-22T00:56:11;106669.31;;;-145.32;100.00
14041;BME280;7095;51.388;6.196;2023-04-22T00:58:40;106927.75;;;-145.32;100.00
14041;BME280;7095;51.388;6.196;2023-04-22T01:01:09;107444.69;;;-145.32;100.00
14041;BME280;7095;51.388;6.196;2023-04-22T01:03:39;107186.22;;;-145.32;100.00
14041;BME280;7095;51.388;6.196;2023-04-22T01:06:08;108478.84;;;-145.32;100.00
14041;BME280;7095;51.388;6.196;2023-04-22T01:08:39;107703.22;;;-145.32;100.00
14041;BME280;7095;51.388;6.196;2023-04-22T01:11:07;107444.69;;;-145.32;100.00
14041;BME280;7095;51.388;6.196;2023-04-22T01:13:36;107703.22;;;-145.32;100.00
14041;BME280;7095;51.388;6.196;2023-04-22T01:16:06;108737.41;;;-145.32;100.00
14041;BME280;7095;51.388;6.196;2023-04-22T01:18:36;107703.22;;;-145.32;100.00
14041;BME280;7095;51.388;6.196;2023-04-22T01:21:04;107961.72;;;-145.32;100.00
14041;BME280;7095;51.388;6.196;2023-04-22T01:23:35;107703.22;;;-145.32;100.00
14041;BME280;7095;51.388;6.196;2023-04-22T01:26:04;106927.75;;;-145.32;100.00
14041;BME280;7095;51.388;6.196;2023-04-22T01:28:33;107961.72;;;-145.32;100.00
14041;BME280;7095;51.388;6.196;2023-04-22T01:31:02;108996.00;;;-145.32;100.00
14041;BME280;7095;51.388;6.196;2023-04-22T01:33:30;109771.94;;;-145.32;100.00
14041;BME280;7095;51.388;6.196;2023-04-22T01:35:59;109771.94;;;-145.32;100.00
14041;BME280;7095;51.388;6.196;2023-04-22T01:38:29;110030.59;;;-145.32;100.00
14041;BME280;7095;51.388;6.196;2023-04-22T01:41:01;110289.28;;;-145.32;100.00
14041;BME280;7095;51.388;6.196;2023-04-22T01:43:30;110289.28;;;-145.32;100.00
14041;BME280;7095;51.388;6.196;2023-04-22T01:45:59;110289.28;;;-145.32;100.00
14041;BME280;7095;51.388;6.196;2023-04-22T01:48:28;110548.00;;;-145.32;100.00
14041;BME280;7095;51.388;6.196;2023-04-22T01:50:57;110548.00;;;-145.32;100.00
14041;BME280;7095;51.388;6.196;2023-04-22T01:53:25;110289.28;;;-145.32;100.00
14041;BME280;7095;51.388;6.196;2023-04-22T01:55:54;111583.06;;;-145.32;100.00
14041;BME280;7095;51.388;6.196;2023-04-22T01:58:24;111841.88;;;-145.32;100.00
14041;BME280;7095;51.388;6.196;2023-04-22T02:00:56;111841.88;;;-145.32;100.00
14041;BME280;7095;51.388;6.196;2023-04-22T02:03:25;111583.06;;;-145.32;100.00
14041;BME280;7095;51.388;6.196;2023-04-22T02:05:54;111841.88;;;-145.32;100.00
14041;BME280;7095;51.388;6.196;2023-04-22T02:08:23;112359.53;;;-145.32;100.00
14041;BME280;7095;51.388;6.196;2023-04-22T02:10:51;112618.41;;;-145.32;100.00
14041;BME280;7095;51.388;6.196;2023-04-22T02:13:20;112359.53;;;-145.32;100.00
14041;BME280;7095;51.388;6.196;2023-04-22T02:15:50;111583.06;;;-145.32;100.00
14041;BME280;7095;51.388;6.196;2023-04-22T02:18:18;111324.28;;;-145.32;100.00
14041;BME280;7095;51.388;6.196;2023-04-22T02:20:47;111324.28;;;-145.32;100.00
14041;BME280;7095;51.388;6.196;2023-04-22T02:23:15;111583.06;;;-145.32;100.00
14041;BME280;7095;51.388;6.196;2023-04-22T02:25:47;111065.50;;;-145.32;100.00
14041;BME280;7095;51.388;6.196;2023-04-22T02:28:18;111583.06;;;-145.32;100.00
14041;BME280;7095;51.388;6.196;2023-04-22T02:30:46;111841.88;;;-145.32;100.00
14041;BME280;7095;51.388;6.196;2023-04-22T02:33:16;111841.88;;;-145.32;100.00
14041;BME280;7095;51.388;6.196;2023-04-22T02:35:45;111841.88;;;-145.32;100.00
14041;BME280;7095;51.388;6.196;2023-04-22T02:38:17;112100.69;;;-145.32;100.00
14041;BME280;7095;51.388;6.196;2023-04-22T02:40:49;112618.41;;;-145.32;100.00
14041;BME280;7095;51.388;6.196;2023-04-22T02:43:18;112877.31;;;-145.32;100.00
14041;BME280;7095;51.388;6.196;2023-04-22T02:45:46;113136.22;;;-145.32;100.00
14041;BME280;7095;51.388;6.196;2023-04-22T02:48:16;113395.13;;;-145.32;100.00
14041;BME280;7095;51.388;6.196;2023-04-22T02:50:45;113654.06;;;-145.32;100.00
14041;BME280;7095;51.388;6.196;2023-04-22T02:53:13;113654.06;;;-145.32;100.00
14041;BME280;7095;51.388;6.196;2023-04-22T02:55:42;113913.03;;;-145.32;100.00
14041;BME280;7095;51.388;6.196;2023-04-22T02:58:10;113654.06;;;-145.32;100.00
14041;BME280;7095;51.388;6.196;2023-04-22T03:00:39;113654.06;;;-145.32;100.00
14041;BME280;7095;51.388;6.196;2023-04-22T03:03:07;113395.13;;;-145.32;100.00
14041;BME280;7095;51.388;6.196;2023-04-22T03:05:37;113395.13;;;-145.32;100.00
14041;BME280;7095;51.388;6.196;2023-04-22T03:08:07;113395.13;;;-145.32;100.00
14041;BME280;7095;51.388;6.196;2023-04-22T03:10:36;113654.06;;;-145.32;100.00
14041;BME280;7095;51.388;6.196;2023-04-22T03:13:05;113395.13;;;-145.32;100.00
14041;BME280;7095;51.388;6.196;2023-04-22T03:15:34;113395.13;;;-145.32;100.00
14041;BME280;7095;51.388;6.196;2023-04-22T03:18:02;113395.13;;;-145.32;100.00
14041;BME280;7095;51.388;6.196;2023-04-22T03:20:32;113654.06;;;-145.32;100.00
14041;BME280;7095;51.388;6.196;2023-04-22T03:23:02;113654.06;;;-145.32;100.00
14041;BME280;7095;51.388;6.196;2023-04-22T03:25:30;113654.06;;;-145.32;100.00
14041;BME280;7095;51.388;6.196;2023-04-22T03:27:59;113395.13;;;-145.32;100.00
14041;BME280;7095;51.388;6.196;2023-04-22T03:30:27;113136.22;;;-145.32;100.00
14041;BME280;7095;51.388;6.196;2023-04-22T03:32:57;113136.22;;;-145.32;100.00
14041;BME280;7095;51.388;6.196;2023-04-22T03:35:34;113136.22;;;-145.32;100.00
14041;BME280;7095;51.388;6.196;2023-04-22T03:38:04;113395.13;;;-145.32;100.00
14041;BME280;7095;51.388;6.196;2023-04-22T03:40:35;113654.06;;;-145.32;100.00
14041;BME280;7095;51.388;6.196;2023-04-22T03:43:15;113654.06;;;-145.32;100.00
14041;BME280;7095;51.388;6.196;2023-04-22T03:45:52;113913.03;;;-145.32;100.00
14041;BME280;7095;51.388;6.196;2023-04-22T03:48:24;113654.06;;;-145.32;100.00
14041;BME280;7095;51.388;6.196;2023-04-22T03:50:55;113654.06;;;-145.32;100.00
14041;BME280;7095;51.388;6.196;2023-04-22T03:53:27;113654.06;;;-145.32;100.00
14041;BME280;7095;51.388;6.196;2023-04-22T03:55:55;113654.06;;;-145.32;100.00
14041;BME280;7095;51.388;6.196;2023-04-22T03:58:24;113654.06;;;-145.32;100.00
14041;BME280;7095;51.388;6.196;2023-04-22T04:00:54;113654.06;;;-145.32;100.00
14041;BME280;7095;51.388;6.196;2023-04-22T04:03:23;113654.06;;;-145.32;100.00
14041;BME280;7095;51.388;6.196;2023-04-22T04:05:56;113654.06;;;-145.32;100.00
14041;BME280;7095;51.388;6.196;2023-04-22T04:08:27;113395.13;;;-145.32;100.00
14041;BME280;7095;51.388;6.196;2023-04-22T04:10:57;113654.06;;;-145.32;100.00
14041;BME280;7095;51.388;6.196;2023-04-22T04:13:27;113654.06;;;-145.32;100.00
14041;BME280;7095;51.388;6.196;2023-04-22T04:16:27;113913.03;;;-145.32;100.00
14041;BME280;7095;51.388;6.196;2023-04-22T04:19:04;113913.03;;;-145.32;100.00
14041;BME280;7095;51.388;6.196;2023-04-22T04:21:38;113913.03;;;-145.32;100.00
14041;BME280;7095;51.388;6.196;2023-04-22T04:24:08;114431.03;;;-145.32;100.00
14041;BME280;7095;51.388;6.196;2023-04-22T04:26:42;114431.03;;;-145.32;100.00
14041;BME280;7095;51.388;6.196;2023-04-22T04:29:18;114431.03;;;-145.32;100.00
14041;BME280;7095;51.388;6.196;2023-04-22T04:31:57;114431.03;;;-145.32;100.00
14041;BME280;7095;51.388;6.196;2023-04-22T04:34:27;114690.03;;;-145.32;100.00
14041;BME280;7095;51.388;6.196;2023-04-22T04:36:56;114690.03;;;-145.32;100.00
14041;BME280;7095;51.388;6.196;2023-04-22T04:39:34;114949.09;;;-145.32;100.00
14041;BME280;7095;51.388;6.196;2023-04-22T04:42:03;114949.09;;;-145.32;100.00
14041;BME280;7095;51.388;6.196;2023-04-22T04:44:39;114949.09;;;-145.32;100.00
14041;BME280;7095;51.388;6.196;2023-04-22T04:47:07;114949.09;;;-145.32;100.00
14041;BME280;7095;51.388;6.196;2023-04-22T04:49:36;115208.13;;;-145.32;100.00
14041;BME280;7095;51.388;6.196;2023-04-22T04:52:07;115208.13;;;-145.32;100.00
14041;BME280;7095;51.388;6.196;2023-04-22T04:54:39;115208.13;;;-145.32;100.00
14041;BME280;7095;51.388;6.196;2023-04-22T04:57:08;114949.09;;;-145.32;100.00
14041;BME280;7095;51.388;6.196;2023-04-22T04:59:38;114949.09;;;-145.32;100.00
14041;BME280;7095;51.388;6.196;2023-04-22T05:02:07;114949.09;;;-145.32;100.00
14041;BME280;7095;51.388;6.196;2023-04-22T05:04:36;114949.09;;;-145.32;100.00
14041;BME280;7095;51.388;6.196;2023-04-22T05:07:05;114949.09;;;-145.32;100.00
14041;BME280;7095;51.388;6.196;2023-04-22T05:09:36;114949.09;;;-145.32;100.00
14041;BME280;7095;51.388;6.196;2023-04-22T05:12:07;114949.09;;;-145.32;100.00
14041;BME280;7095;51.388;6.196;2023-04-22T05:14:36;114949.09;;;-145.32;100.00
14041;BME280;7095;51.388;6.196;2023-04-22T05:17:05;114949.09;;;-145.32;100.00
14041;BME280;7095;51.388;6.196;2023-04-22T05:19:33;114949.09;;;-145.32;100.00
14041;BME280;7095;51.388;6.196;2023-04-22T05:22:02;114949.09;;;-145.32;100.00
14041;BME280;7095;51.388;6.196;2023-04-22T05:24:30;114949.09;;;-145.32;100.00
14041;BME280;7095;51.388;6.196;2023-04-22T05:26:59;114690.03;;;-145.32;100.00
14041;BME280;7095;51.388;6.196;2023-04-22T05:29:30;114949.09;;;-145.32;100.00
14041;BME280;7095;51.388;6.196;2023-04-22T05:32:00;114949.09;;;-145.32;100.00
14041;BME280;7095;51.388;6.196;2023-04-22T05:34:29;114949.09;;;-145.32;100.00
14041;BME280;7095;51.388;6.196;2023-04-22T05:37:01;114949.09;;;-145.32;100.00
14041;BME280;7095;51.388;6.196;2023-04-22T05:39:30;115208.13;;;-145.32;100.00
14041;BME280;7095;51.388;6.196;2023-04-22T05:42:02;115208.13;;;-145.32;100.00
14041;BME280;7095;51.388;6.196;2023-04-22T05:44:33;115208.13;;;-145.32;100.00
14041;BME280;7095;51.388;6.196;2023-04-22T05:47:02;115208.13;;;-145.32;100.00
14041;BME280;7095;51.388;6.196;2023-04-22T05:49:31;115208.13;;;-145.32;100.00
14041;BME280;7095;51.388;6.196;2023-04-22T05:52:02;114949.09;;;-145.32;100.00
14041;BME280;7095;51.388;6.196;2023-04-22T05:54:41;115208.13;;;-145.32;100.00
14041;BME280;7095;51.388;6.196;2023-04-22T05:57:10;115208.13;;;-145.32;100.00
14041;BME280;7095;51.388;6.196;2023-04-22T05:59:40;115467.22;;;-145.32;100.00
14041;BME280;7095;51.388;6.196;2023-04-22T06:02:09;115208.13;;;-145.32;100.00
14041;BME280;7095;51.388;6.196;2023-04-22T06:04:38;115467.22;;;-145.32;100.00
14041;BME280;7095;51.388;6.196;2023-04-22T06:07:07;115467.22;;;-145.32;100.00
14041;BME280;7095;51.388;6.196;2023-04-22T06:09:38;115467.22;;;-145.32;100.00
14041;BME280;7095;51.388;6.196;2023-04-22T06:12:07;114949.09;;;-145.32;100.00
14041;BME280;7095;51.388;6.196;2023-04-22T06:14:36;115208.13;;;-145.32;100.00
14041;BME280;7095;51.388;6.196;2023-04-22T06:17:06;114949.09;;;-145.32;100.00
14041;BME280;7095;51.388;6.196;2023-04-22T06:19:36;115208.13;;;-145.32;100.00
14041;BME280;7095;51.388;6.196;2023-04-22T06:22:05;115208.13;;;-145.32;100.00
14041;BME280;7095;51.388;6.196;2023-04-22T06:24:33;115467.22;;;-145.32;100.00
14041;BME280;7095;51.388;6.196;2023-04-22T06:27:02;115467.22;;;-145.32;100.00
14041;BME280;7095;51.388;6.196;2023-04-22T06:29:30;115467.22;;;-145.32;100.00
14041;BME280;7095;51.388;6.196;2023-04-22T06:31:59;115467.22;;;-145.32;100.00
14041;BME280;7095;51.388;6.196;2023-04-22T06:34:28;115726.31;;;-145.32;100.00
14041;BME280;7095;51.388;6.196;2023-04-22T06:36:57;115726.31;;;-145.32;100.00
14041;BME280;7095;51.388;6.196;2023-04-22T06:39:25;115726.31;;;-145.32;100.00
14041;BME280;7095;51.388;6.196;2023-04-22T06:42:11;115467.22;;;-145.32;100.00
14041;BME280;7095;51.388;6.196;2023-04-22T06:45:07;115467.22;;;-145.32;100.00
14041;BME280;7095;51.388;6.196;2023-04-22T06:48:07;115726.31;;;-145.32;100.00
14041;BME280;7095;51.388;6.196;2023-04-22T06:50:54;115726.31;;;-145.32;100.00
14041;BME280;7095;51.388;6.196;2023-04-22T06:53:24;115467.22;;;-145.32;100.00
14041;BME280;7095;51.388;6.196;2023-04-22T06:55:53;115208.13;;;-145.32;100.00
14041;BME280;7095;51.388;6.196;2023-04-22T06:58:21;114949.09;;;-145.32;100.00
14041;BME280;7095;51.388;6.196;2023-04-22T07:00:50;114690.03;;;-145.32;100.00
14041;BME280;7095;51.388;6.196;2023-04-22T07:03:18;114690.03;;;-145.32;100.00
14041;BME280;7095;51.388;6.196;2023-04-22T07:05:59;114690.03;;;-145.32;100.00
14041;BME280;7095;51.388;6.196;2023-04-22T07:08:29;114690.03;;;-145.32;100.00
14041;BME280;7095;51.388;6.196;2023-04-22T07:11:01;113913.03;;;-145.32;100.00
14041;BME280;7095;51.388;6.196;2023-04-22T07:13:35;114172.03;;;-145.32;100.00
14041;BME280;7095;51.388;6.196;2023-04-22T07:16:04;113913.03;;;-145.32;100.00
14041;BME280;7095;51.388;6.196;2023-04-22T07:18:33;112877.31;;;-145.32;100.00
14041;BME280;7095;51.388;6.196;2023-04-22T07:21:03;112877.31;;;-145.32;100.00
14041;BME280;7095;51.388;6.196;2023-04-22T07:23:31;112877.31;;;-145.32;100.00
14041;BME280;7095;51.388;6.196;2023-04-22T07:26:00;111841.88;;;-145.32;100.00
14041;BME280;7095;51.388;6.196;2023-04-22T07:28:37;110289.28;;;-145.32;100.00
14041;BME280;7095;51.388;6.196;2023-04-22T07:31:06;108478.84;;;-145.32;100.00
14041;BME280;7095;51.388;6.196;2023-04-22T07:33:35;107961.72;;;-145.32;100.00
14041;BME280;7095;51.388;6.196;2023-04-22T07:36:05;108478.84;;;-145.32;100.00
14041;BME280;7095;51.388;6.196;2023-04-22T07:38:34;107961.72;;;-145.32;100.00
14041;BME280;7095;51.388;6.196;2023-04-22T07:41:02;106927.75;;;-145.32;100.00
14041;BME280;7095;51.388;6.196;2023-04-22T07:43:31;108737.41;;;-145.32;100.00
14041;BME280;7095;51.388;6.196;2023-04-22T07:45:59;107444.69;;;-145.32;100.00
14041;BME280;7095;51.388;6.196;2023-04-22T07:48:28;107961.72;;;-145.32;100.00
14041;BME280;7095;51.388;6.196;2023-04-22T07:50:56;107186.22;;;-145.32;100.00
14041;BME280;7095;51.388;6.196;2023-04-22T07:53:26;104860.72;;;-145.32;100.00
14041;BME280;7095;51.388;6.196;2023-04-22T07:55:55;104602.44;;;-145.32;100.00
14041;BME280;7095;51.388;6.196;2023-04-22T07:58:24;105635.72;;;-145.32;100.00
14041;BME280;7095;51.388;6.196;2023-04-22T08:00:53;101246.34;;;-145.32;100.00
14041;BME280;7095;51.388;6.196;2023-04-22T08:03:22;102278.66;;;-145.32;100.00
14041;BME280;7095;51.388;6.196;2023-04-22T08:05:50;103569.44;;;-145.32;100.00
14041;BME280;7095;51.388;6.196;2023-04-22T08:08:19;100472.31;;;-145.32;100.00
14041;BME280;7095;51.388;6.196;2023-04-22T08:10:51;101762.47;;;-145.32;100.00
14041;BME280;7095;51.388;6.196;2023-04-22T08:13:19;101504.38;;;-145.32;100.00
14041;BME280;7095;51.388;6.196;2023-04-22T08:15:50;100472.31;;;-145.32;100.00
14041;BME280;7095;51.388;6.196;2023-04-22T08:18:19;96347.13;;;-145.32;100.00
14041;BME280;7095;51.388;6.196;2023-04-22T08:20:48;97893.50;;;-145.32;100.00
14041;BME280;7095;51.388;6.196;2023-04-22T08:23:17;94286.38;;;-145.32;100.00
14041;BME280;7095;51.388;6.196;2023-04-22T08:25:45;97377.97;;;-145.32;100.00
14041;BME280;7095;51.388;6.196;2023-04-22T08:28:15;95316.59;;;-145.32;100.00
14041;BME280;7095;51.388;6.196;2023-04-22T08:30:46;98409.13;;;-145.32;100.00
14041;BME280;7095;51.388;6.196;2023-04-22T08:33:14;93256.44;;;-145.32;100.00
14041;BME280;7095;51.388;6.196;2023-04-22T08:35:43;90168.50;;;-145.32;100.00
14041;BME280;7095;51.388;6.196;2023-04-22T08:38:14;89139.81;;;-145.32;100.00
14041;BME280;7095;51.388;6.196;2023-04-22T08:40:42;91454.81;;;-145.32;100.00
14041;BME280;7095;51.388;6.196;2023-04-22T08:43:11;88882.69;;;-145.32;100.00
14041;BME280;7095;51.388;6.196;2023-04-22T08:45:41;86312.47;;;-145.32;100.00
14041;BME280;7095;51.388;6.196;2023-04-22T08:48:11;82460.72;;;-145.32;100.00
14041;BME280;7095;51.388;6.196;2023-04-22T08:50:40;77331.78;;;-145.32;100.00
14041;BME280;7095;51.388;6.196;2023-04-22T08:53:08;76819.28;;;-145.32;100.00
14041;BME280;7095;51.388;6.196;2023-04-22T08:55:37;74258.06;;;-145.32;100.00
14041;BME280;7095;51.388;6.196;2023-04-22T08:58:07;72466.34;;;-145.32;100.00
14041;BME280;7095;51.388;6.196;2023-04-22T09:00:36;67152.69;;;-145.32;100.00
14041;BME280;7095;51.388;6.196;2023-04-22T09:03:06;66186.72;;;-145.32;100.00
14041;BME280;7095;51.388;6.196;2023-04-22T09:05:36;61815.41;;;-145.32;100.00
14041;BME280;7095;51.388;6.196;2023-04-22T09:08:07;58918.91;;;-145.32;100.00
14041;BME280;7095;51.388;6.196;2023-04-22T09:10:36;58524.66;;;-145.32;100.00
14041;BME280;7095;51.388;6.196;2023-04-22T09:13:06;58648.13;;;-145.32;100.00
14041;BME280;7095;51.388;6.196;2023-04-22T09:15:34;57748.25;;;-145.32;100.00
14041;BME280;7095;51.388;6.196;2023-04-22T09:18:03;57602.97;;;-145.32;100.00
14041;BME280;7095;51.388;6.196;2023-04-22T09:20:33;57079.50;;;-145.32;100.00
14041;BME280;7095;51.388;6.196;2023-04-22T09:23:02;56991.94;;;-145.32;100.00
14041;BME280;7095;51.388;6.196;2023-04-22T09:25:32;56102.47;;;-145.32;100.00
14041;BME280;7095;51.388;6.196;2023-04-22T09:28:01;55806.03;;;-145.32;100.00
14041;BME280;7095;51.388;6.196;2023-04-22T09:30:32;55644.91;;;-145.32;100.00
14041;BME280;7095;51.388;6.196;2023-04-22T09:33:06;55609.09;;;-145.32;100.00
14041;BME280;7095;51.388;6.196;2023-04-22T09:35:37;55436.03;;;-145.32;100.00
14041;BME280;7095;51.388;6.196;2023-04-22T09:38:08;55288.84;;;-145.32;100.00
14041;BME280;7095;51.388;6.196;2023-04-22T09:40:40;55081.97;;;-145.32;100.00
14041;BME280;7095;51.388;6.196;2023-04-22T09:43:09;54910.91;;;-145.32;100.00
14041;BME280;7095;51.388;6.196;2023-04-22T09:45:39;54767.72;;;-145.32;100.00
14041;BME280;7095;51.388;6.196;2023-04-22T09:48:09;54539.03;;;-145.32;100.00
14041;BME280;7095;51.388;6.196;2023-04-22T09:50:42;54421.69;;;-145.32;100.00
14041;BME280;7095;51.388;6.196;2023-04-22T09:53:12;54328.22;;;-145.32;100.00
14041;BME280;7095;51.388;6.196;2023-04-22T09:55:45;54268.56;;;-145.32;100.00
14041;BME280;7095;51.388;6.196;2023-04-22T09:58:16;54260.63;;;-145.32;100.00
14041;BME280;7095;51.388;6.196;2023-04-22T10:00:46;54210.91;;;-145.32;100.00
14041;BME280;7095;51.388;6.196;2023-04-22T10:03:15;54296.41;;;-145.32;100.00
14041;BME280;7095;51.388;6.196;2023-04-22T10:05:45;54300.38;;;-145.32;100.00
14041;BME280;7095;51.388;6.196;2023-04-22T10:08:15;54155.22;;;-145.32;100.00
14041;BME280;7095;51.388;6.196;2023-04-22T10:10:44;54171.13;;;-145.32;100.00
14041;BME280;7095;51.388;6.196;2023-04-22T10:13:12;54077.69;;;-145.32;100.00
14041;BME280;7095;51.388;6.196;2023-04-22T10:15:42;54099.56;;;-145.32;100.00
14041;BME280;7095;51.388;6.196;2023-04-22T10:18:13;54045.88;;;-145.32;100.00
14041;BME280;7095;51.388;6.196;2023-04-22T10:20:45;54035.91;;;-145.32;100.00
14041;BME280;7095;51.388;6.196;2023-04-22T10:23:18;54077.69;;;-145.32;100.00
14041;BME280;7095;51.388;6.196;2023-04-22T10:25:47;54073.69;;;-145.32;100.00
14041;BME280;7095;51.388;6.196;2023-04-22T10:28:20;54073.69;;;-145.32;100.00
14041;BME280;7095;51.388;6.196;2023-04-22T10:30:49;54055.81;;;-145.32;100.00
14041;BME280;7095;51.388;6.196;2023-04-22T10:33:34;54014.06;;;-145.32;100.00
14041;BME280;7095;51.388;6.196;2023-04-22T10:36:10;53998.16;;;-145.32;100.00
14041;BME280;7095;51.388;6.196;2023-04-22T10:39:15;53916.63;;;-145.32;100.00
14041;BME280;7095;51.388;6.196;2023-04-22T10:41:54;53876.84;;;-145.32;100.00
14041;BME280;7095;51.388;6.196;2023-04-22T10:44:28;53849.03;;;-145.32;100.00
14041;BME280;7095;51.388;6.196;2023-04-22T10:46:58;53916.63;;;-145.32;100.00
14041;BME280;7095;51.388;6.196;2023-04-22T10:49:30;53918.59;;;-145.32;100.00
14041;BME280;7095;51.388;6.196;2023-04-22T10:52:00;53904.69;;;-145.32;100.00
14041;BME280;7095;51.388;6.196;2023-04-22T10:54:58;53845.03;;;-145.32;100.00
14041;BME280;7095;51.388;6.196;2023-04-22T10:57:32;53853.00;;;-145.32;100.00
14041;BME280;7095;51.388;6.196;2023-04-22T11:00:22;53799.31;;;-145.32;100.00
14041;BME280;7095;51.388;6.196;2023-04-22T11:02:53;53795.34;;;-145.32;100.00
14041;BME280;7095;51.388;6.196;2023-04-22T11:05:24;53809.25;;;-145.32;100.00
14041;BME280;7095;51.388;6.196;2023-04-22T11:08:01;53747.63;;;-145.32;100.00
14041;BME280;7095;51.388;6.196;2023-04-22T11:10:34;53703.88;;;-145.32;100.00
14041;BME280;7095;51.388;6.196;2023-04-22T11:13:12;53729.72;;;-145.32;100.00
14041;BME280;7095;51.388;6.196;2023-04-22T11:15:42;53745.63;;;-145.32;100.00
14041;BME280;7095;51.388;6.196;2023-04-22T11:18:19;53684.00;;;-145.32;100.00
14041;BME280;7095;51.388;6.196;2023-04-22T11:20:49;53745.63;;;-145.32;100.00
14041;BME280;7095;51.388;6.196;2023-04-22T11:23:22;53715.81;;;-145.32;100.00
14041;BME280;7095;51.388;6.196;2023-04-22T11:25:55;53638.28;;;-145.32;100.00
14041;BME280;7095;51.388;6.196;2023-04-22T11:28:25;53634.28;;;-145.32;100.00
14041;BME280;7095;51.388;6.196;2023-04-22T11:31:02;53612.44;;;-145.32;100.00
14041;BME280;7095;51.388;6.196;2023-04-22T11:33:31;53586.56;;;-145.32;100.00
14041;BME280;7095;51.388;6.196;2023-04-22T11:36:00;53586.56;;;-145.32;100.00
14041;BME280;7095;51.388;6.196;2023-04-22T11:38:30;53606.47;;;-145.32;100.00
14041;BME280;7095;51.388;6.196;2023-04-22T11:40:59;53574.66;;;-145.32;100.00
14041;BME280;7095;51.388;6.196;2023-04-22T11:43:27;53568.69;;;-145.32;100.00
14041;BME280;7095;51.388;6.196;2023-04-22T11:45:56;53546.81;;;-145.32;100.00
14041;BME280;7095;51.388;6.196;2023-04-22T11:48:24;53530.91;;;-145.32;100.00
14041;BME280;7095;51.388;6.196;2023-04-22T11:51:06;53532.91;;;-145.32;100.00
14041;BME280;7095;51.388;6.196;2023-04-22T11:53:37;53522.97;;;-145.32;100.00
14041;BME280;7095;51.388;6.196;2023-04-22T11:56:07;53526.94;;;-145.32;100.00
14041;BME280;7095;51.388;6.196;2023-04-22T11:58:38;53546.81;;;-145.32;100.00
14041;BME280;7095;51.388;6.196;2023-04-22T12:01:11;53566.69;;;-145.32;100.00
14041;BME280;7095;51.388;6.196;2023-04-22T12:03:40;53572.66;;;-145.32;100.00
14041;BME280;7095;51.388;6.196;2023-04-22T12:06:08;53566.69;;;-145.32;100.00
14041;BME280;7095;51.388;6.196;2023-04-22T12:08:39;53584.59;;;-145.32;100.00
14041;BME280;7095;51.388;6.196;2023-04-22T12:11:10;53558.75;;;-145.32;100.00
14041;BME280;7095;51.388;6.196;2023-04-22T12:13:41;53509.03;;;-145.32;100.00
14041;BME280;7095;51.388;6.196;2023-04-22T12:16:11;53522.97;;;-145.32;100.00
14041;BME280;7095;51.388;6.196;2023-04-22T12:18:47;53483.19;;;-145.32;100.00
14041;BME280;7095;51.388;6.196;2023-04-22T12:21:19;53528.94;;;-145.32;100.00
14041;BME280;7095;51.388;6.196;2023-04-22T12:23:53;53511.03;;;-145.32;99.15
14041;BME280;7095;51.388;6.196;2023-04-22T12:26:23;53505.06;;;-145.32;100.00
14041;BME280;7095;51.388;6.196;2023-04-22T12:28:54;53499.09;;;-145.32;100.00
14041;BME280;7095;51.388;6.196;2023-04-22T12:31:24;53483.19;;;-145.32;98.17
14041;BME280;7095;51.388;6.196;2023-04-22T12:33:53;53483.19;;;-145.32;94.92
14041;BME280;7095;51.388;6.196;2023-04-22T12:36:22;53439.47;;;-145.32;92.25
14041;BME280;7095;51.388;6.196;2023-04-22T12:38:52;53449.41;;;-145.32;87.64
14041;BME280;7095;51.388;6.196;2023-04-22T12:41:21;53457.34;;;-145.32;90.87
14041;BME280;7095;51.388;6.196;2023-04-22T12:43:50;53467.28;;;-145.32;86.67
14041;BME280;7095;51.388;6.196;2023-04-22T12:46:18;53457.34;;;-145.32;92.27
14041;BME280;7095;51.388;6.196;2023-04-22T12:48:47;53493.13;;;-145.32;93.19
14041;BME280;7095;51.388;6.196;2023-04-22T12:51:15;53495.13;;;-145.32;94.40